Terminal Aerodrome Forecast
Issued by NWS

Home | Current Version | Previous Version | Text Only | Print | Product List | Glossary On
Versions: 1 2 3 4 5 6 7 8 9 10 11 12 13 14 15
000
FTUS46 KPDT 131615 AAB
TAFALW
TAF AMD
KALW 131615Z 1316/1412 33004KT 6SM BR BKN008 OVC015
     FM132000 36004KT P6SM SCT010 OVC015
     FM140300 11005KT P6SM OVC010=

USA.gov is the U.S. government's official web portal to all federal, state and local government web resources and services.